Terminal Aerodrome Forecast
Issued by NWS

Home | Current Version | Previous Version | Text Only | Print | Product List | Glossary On
Versions: 1 2 3 4 5 6 7 8 9 10 11 12 13 14 15 16 17 18 19
999
FTUS45 KRIW 280354 AAB
TAFCPR
TAF AMD
KCPR 280354Z 2804/2824 34010KT 4SM -SN SCT006 OVC015
     FM280900 03012KT 1 1/2SM -SN OVC009
     FM281700 06010KT 3SM -SHSN SCT010 BKN015=

USA.gov is the U.S. government's official web portal to all federal, state and local government web resources and services.